Time;durP1;ratioP1;P1;durP2;ratioP2;P2;SDS_P1;SDS_P2;PMS_P1;PMS_P2;Temp;Humidity;BMP_temperature;BMP_pressure;BME280_temperature;BME280_humidity;BME280_pressure;Samples;Min_cycle;Max_cycle;Signal;HPM_P1;HPM_P2
2023/07/01 00:02:53;;;;;;;5.57;3.58;;;;;;;;;;6242985;28;20249;-78
2023/07/01 00:05:54;;;;;;;6.20;3.95;;;;;;;;;;6243232;28;20393;-79
2023/07/01 00:08:57;;;;;;;5.88;4.10;;;;;;;;;;6244803;28;20061;-78
2023/07/01 00:11:59;;;;;;;6.13;4.17;;;;;;;;;;6245641;28;20046;-79
2023/07/01 00:15:00;;;;;;;6.45;4.40;;;;;;;;;;6242877;28;20064;-82
2023/07/01 00:18:02;;;;;;;7.57;4.68;;;;;;;;;;6241606;28;20052;-78
2023/07/01 00:21:03;;;;;;;6.55;4.78;;;;;;;;;;6241324;28;20057;-78
2023/07/01 00:24:06;;;;;;;5.88;4.35;;;;;;;;;;6244980;28;20806;-78
2023/07/01 00:27:08;;;;;;;10.70;6.30;;;;;;;;;;6243405;28;20058;-79
2023/07/01 00:30:10;;;;;;;8.15;5.03;;;;;;;;;;6242212;28;20080;-79
2023/07/01 00:33:11;;;;;;;6.82;4.85;;;;;;;;;;6242418;28;20049;-78
2023/07/01 00:36:12;;;;;;;9.25;6.32;;;;;;;;;;6245802;28;20057;-81
2023/07/01 00:39:15;;;;;;;10.35;7.35;;;;;;;;;;6246633;28;20052;-78
2023/07/01 00:42:17;;;;;;;11.27;7.45;;;;;;;;;;6246795;28;20055;-78
2023/07/01 00:45:19;;;;;;;9.70;7.13;;;;;;;;;;6242513;28;20049;-80
2023/07/01 00:48:23;;;;;;;11.80;8.43;;;;;;;;;;6237127;28;20356;-79
2023/07/01 00:51:25;;;;;;;13.10;9.25;;;;;;;;;;6245456;28;20087;-80
2023/07/01 00:54:28;;;;;;;13.95;9.93;;;;;;;;;;6242362;28;20088;-79
2023/07/01 00:57:30;;;;;;;18.97;12.27;;;;;;;;;;6240485;28;20391;-79
2023/07/01 01:00:31;;;;;;;18.00;13.00;;;;;;;;;;6239879;28;20043;-78
2023/07/01 01:03:36;;;;;;;23.15;15.35;;;;;;;;;;6243606;28;20057;-78
2023/07/01 01:06:39;;;;;;;24.10;16.52;;;;;;;;;;6239867;28;20337;-78
2023/07/01 01:09:44;;;;;;;24.98;16.65;;;;;;;;;;6244710;28;20060;-78
2023/07/01 01:12:46;;;;;;;25.77;17.20;;;;;;;;;;6243049;28;20337;-78
2023/07/01 01:15:48;;;;;;;23.63;16.08;;;;;;;;;;6243183;28;20233;-79
2023/07/01 01:18:51;;;;;;;27.85;18.85;;;;;;;;;;6240236;28;20045;-82
2023/07/01 01:21:55;;;;;;;29.50;19.05;;;;;;;;;;6245344;28;20041;-82
2023/07/01 01:25:06;;;;;;;26.70;18.30;;;;;;;;;;6241914;28;20103;-78
2023/07/01 01:28:09;;;;;;;28.58;18.92;;;;;;;;;;6241013;28;20294;-78
2023/07/01 01:31:11;;;;;;;31.60;19.77;;;;;;;;;;6240650;28;20050;-79
2023/07/01 01:34:13;;;;;;;34.33;20.92;;;;;;;;;;6246318;28;20090;-79
2023/07/01 01:37:19;;;;;;;31.30;20.48;;;;;;;;;;6240837;28;20116;-78
2023/07/01 01:40:23;;;;;;;33.05;21.77;;;;;;;;;;6243075;28;20233;-79
2023/07/01 01:43:27;;;;;;;31.33;21.70;;;;;;;;;;6244597;28;20313;-79
2023/07/01 01:46:29;;;;;;;36.92;21.88;;;;;;;;;;6246666;28;20080;-78
2023/07/01 01:49:32;;;;;;;36.42;22.08;;;;;;;;;;6247983;28;20049;-78
2023/07/01 01:52:33;;;;;;;36.83;21.93;;;;;;;;;;6247810;28;20057;-79
2023/07/01 01:55:35;;;;;;;34.13;21.60;;;;;;;;;;6247614;28;21213;-79
2023/07/01 01:58:38;;;;;;;37.45;22.92;;;;;;;;;;6246113;28;20080;-79
2023/07/01 02:01:39;;;;;;;34.08;22.90;;;;;;;;;;6247773;28;20049;-78
2023/07/01 02:04:41;;;;;;;34.72;21.92;;;;;;;;;;6242985;28;20065;-80
2023/07/01 02:07:42;;;;;;;35.63;23.13;;;;;;;;;;6246584;28;20064;-79
2023/07/01 02:10:44;;;;;;;40.35;25.83;;;;;;;;;;6247316;28;20046;-79
2023/07/01 02:13:47;;;;;;;40.67;24.60;;;;;;;;;;6246987;28;20338;-83
2023/07/01 02:16:49;;;;;;;38.25;24.45;;;;;;;;;;6246977;28;20136;-80
2023/07/01 02:19:51;;;;;;;33.70;22.48;;;;;;;;;;6247676;28;20386;-79
2023/07/01 02:22:52;;;;;;;37.42;24.35;;;;;;;;;;6251755;28;20065;-80
2023/07/01 02:25:54;;;;;;;36.95;22.60;;;;;;;;;;6254283;28;20253;-79
2023/07/01 02:28:56;;;;;;;36.45;23.90;;;;;;;;;;6254031;28;20057;-78
2023/07/01 02:31:58;;;;;;;39.83;24.70;;;;;;;;;;6255452;28;20124;-79
2023/07/01 02:34:59;;;;;;;39.10;24.92;;;;;;;;;;6252097;28;20072;-79
2023/07/01 02:38:01;;;;;;;41.10;25.15;;;;;;;;;;6249316;28;20046;-80
2023/07/01 02:41:04;;;;;;;41.20;25.23;;;;;;;;;;6252863;28;20049;-83
2023/07/01 02:44:07;;;;;;;40.15;24.55;;;;;;;;;;6254093;28;20057;-79
2023/07/01 02:47:08;;;;;;;44.20;24.48;;;;;;;;;;6254431;28;21011;-78
2023/07/01 02:50:10;;;;;;;36.08;23.20;;;;;;;;;;6250820;28;20068;-80
2023/07/01 02:53:11;;;;;;;38.20;23.65;;;;;;;;;;6249839;28;20404;-82
2023/07/01 02:56:13;;;;;;;36.45;23.92;;;;;;;;;;6247974;28;20048;-82
2023/07/01 02:59:16;;;;;;;38.40;24.23;;;;;;;;;;6249298;28;20041;-80
2023/07/01 03:02:17;;;;;;;39.00;25.03;;;;;;;;;;6249785;28;20061;-79
2023/07/01 03:05:23;;;;;;;38.30;24.30;;;;;;;;;;6244702;28;20345;-80
2023/07/01 03:08:25;;;;;;;40.00;26.58;;;;;;;;;;6253098;28;20442;-79
2023/07/01 03:11:26;;;;;;;40.78;26.20;;;;;;;;;;6246104;28;20070;-78
2023/07/01 03:14:29;;;;;;;44.38;27.23;;;;;;;;;;6243839;28;20140;-79
2023/07/01 03:17:32;;;;;;;41.88;26.77;;;;;;;;;;6245787;28;20379;-78
2023/07/01 03:20:33;;;;;;;46.38;27.38;;;;;;;;;;6243737;28;20433;-81
2023/07/01 03:23:36;;;;;;;40.10;25.67;;;;;;;;;;6242551;28;20210;-81
2023/07/01 03:26:39;;;;;;;40.57;26.23;;;;;;;;;;6242565;28;20053;-80
2023/07/01 03:29:45;;;;;;;44.38;27.30;;;;;;;;;;6243605;28;20053;-81
2023/07/01 03:32:49;;;;;;;43.28;27.65;;;;;;;;;;6242627;28;20061;-80
2023/07/01 03:35:50;;;;;;;50.03;29.13;;;;;;;;;;6245069;28;20057;-79
2023/07/01 03:38:52;;;;;;;45.92;29.52;;;;;;;;;;6241054;28;20104;-79
2023/07/01 03:41:54;;;;;;;48.38;29.48;;;;;;;;;;6244815;28;20113;-80
2023/07/01 03:44:57;;;;;;;54.35;31.13;;;;;;;;;;6250178;28;20058;-79
2023/07/01 03:47:58;;;;;;;49.20;30.17;;;;;;;;;;6245320;28;20131;-79
2023/07/01 03:51:00;;;;;;;55.88;32.08;;;;;;;;;;6243595;28;20345;-79
2023/07/01 03:54:01;;;;;;;48.60;29.40;;;;;;;;;;6248117;28;20054;-79
2023/07/01 03:57:03;;;;;;;40.90;25.20;;;;;;;;;;6244059;28;20052;-80
2023/07/01 04:00:08;;;;;;;40.00;23.33;;;;;;;;;;6242562;28;20425;-80
2023/07/01 04:03:10;;;;;;;38.20;22.85;;;;;;;;;;6242373;28;20057;-80
2023/07/01 04:06:11;;;;;;;37.95;22.55;;;;;;;;;;6242972;28;20317;-80
2023/07/01 04:09:13;;;;;;;41.33;23.55;;;;;;;;;;6244060;28;20124;-80
2023/07/01 04:12:15;;;;;;;36.28;21.83;;;;;;;;;;6242481;28;20100;-80
2023/07/01 04:15:17;;;;;;;34.90;21.10;;;;;;;;;;6242499;28;20049;-80
2023/07/01 04:18:20;;;;;;;40.87;23.80;;;;;;;;;;6242419;28;20053;-80
2023/07/01 04:21:22;;;;;;;40.20;23.13;;;;;;;;;;6242567;28;20418;-80
2023/07/01 04:24:24;;;;;;;45.60;24.23;;;;;;;;;;6244119;28;20372;-81
2023/07/01 04:27:25;;;;;;;42.60;25.52;;;;;;;;;;6244646;28;20053;-80
2023/07/01 04:30:28;;;;;;;45.15;24.90;;;;;;;;;;6245568;28;20061;-79
2023/07/01 04:33:30;;;;;;;49.60;27.40;;;;;;;;;;6243829;28;20045;-80
2023/07/01 04:36:31;;;;;;;41.40;25.02;;;;;;;;;;6240787;28;20065;-78
2023/07/01 04:39:33;;;;;;;43.70;25.23;;;;;;;;;;6242815;28;20067;-81
2023/07/01 04:42:34;;;;;;;45.45;25.45;;;;;;;;;;6243165;28;20049;-80
2023/07/01 04:45:37;;;;;;;44.42;27.35;;;;;;;;;;6241094;28;20354;-80
2023/07/01 04:48:38;;;;;;;44.00;24.70;;;;;;;;;;6240566;28;20100;-80
2023/07/01 04:51:40;;;;;;;43.90;26.10;;;;;;;;;;6240875;28;20099;-80
2023/07/01 04:54:41;;;;;;;44.92;26.63;;;;;;;;;;6241885;28;20067;-80
2023/07/01 04:57:43;;;;;;;44.40;25.02;;;;;;;;;;6243115;28;20720;-81
2023/07/01 05:00:46;;;;;;;44.53;25.80;;;;;;;;;;6244770;28;20055;-80
2023/07/01 05:03:47;;;;;;;40.75;25.35;;;;;;;;;;6240373;28;20046;-81
2023/07/01 05:06:49;;;;;;;43.25;25.08;;;;;;;;;;6240645;28;20096;-81
2023/07/01 05:09:50;;;;;;;40.88;24.02;;;;;;;;;;6239834;28;20057;-80
2023/07/01 05:12:52;;;;;;;43.83;24.25;;;;;;;;;;6241107;28;20053;-81
2023/07/01 05:15:54;;;;;;;40.92;23.33;;;;;;;;;;6239715;28;20053;-80
2023/07/01 05:18:57;;;;;;;40.90;23.10;;;;;;;;;;6241367;28;20163;-80
2023/07/01 05:21:58;;;;;;;41.15;23.27;;;;;;;;;;6241402;28;20085;-81
2023/07/01 05:24:59;;;;;;;37.22;23.30;;;;;;;;;;6241035;28;20054;-81
2023/07/01 05:28:01;;;;;;;34.33;21.00;;;;;;;;;;6241316;28;20164;-80
2023/07/01 05:31:04;;;;;;;36.78;23.13;;;;;;;;;;6242115;28;20172;-80
2023/07/01 05:34:05;;;;;;;42.50;24.40;;;;;;;;;;6242493;28;20057;-80
2023/07/01 05:37:07;;;;;;;36.22;22.85;;;;;;;;;;6241137;28;20053;-81
2023/07/01 05:40:09;;;;;;;37.40;22.38;;;;;;;;;;6242298;28;20144;-81
2023/07/01 05:43:11;;;;;;;36.13;22.42;;;;;;;;;;6241380;28;20111;-79
2023/07/01 05:46:13;;;;;;;33.72;21.98;;;;;;;;;;6245261;28;20052;-74
2023/07/01 05:49:15;;;;;;;36.07;21.03;;;;;;;;;;6245245;28;20041;-83
2023/07/01 05:52:16;;;;;;;30.90;19.48;;;;;;;;;;6242100;28;20627;-81
2023/07/01 05:55:18;;;;;;;29.05;19.73;;;;;;;;;;6241693;28;20322;-79
2023/07/01 05:58:19;;;;;;;30.35;19.50;;;;;;;;;;6241547;28;20057;-81
2023/07/01 06:01:22;;;;;;;29.73;20.48;;;;;;;;;;6241185;28;20321;-82
2023/07/01 06:04:24;;;;;;;32.30;20.58;;;;;;;;;;6240809;28;20042;-79
2023/07/01 06:07:25;;;;;;;30.05;20.63;;;;;;;;;;6240330;28;20209;-81
2023/07/01 06:10:27;;;;;;;32.88;19.75;;;;;;;;;;6240955;28;20117;-81
2023/07/01 06:13:28;;;;;;;34.28;22.85;;;;;;;;;;6243250;28;20269;-80
2023/07/01 06:16:31;;;;;;;32.70;21.13;;;;;;;;;;6239397;28;20056;-81
2023/07/01 06:19:32;;;;;;;35.40;21.92;;;;;;;;;;6240497;28;20056;-80
2023/07/01 06:22:34;;;;;;;39.53;23.25;;;;;;;;;;6238407;28;20641;-81
2023/07/01 06:25:35;;;;;;;38.50;22.95;;;;;;;;;;6240789;28;20108;-80
2023/07/01 06:28:37;;;;;;;39.40;22.77;;;;;;;;;;6240363;28;20380;-80
2023/07/01 06:31:39;;;;;;;38.17;24.40;;;;;;;;;;6246181;28;20342;-80
2023/07/01 06:34:41;;;;;;;32.42;20.27;;;;;;;;;;6244553;28;20369;-82
2023/07/01 06:37:42;;;;;;;35.22;22.33;;;;;;;;;;6244605;28;20344;-79
2023/07/01 06:40:44;;;;;;;32.25;20.30;;;;;;;;;;6247130;28;20057;-80
2023/07/01 06:43:46;;;;;;;34.17;20.73;;;;;;;;;;6245379;28;20061;-80
2023/07/01 06:46:49;;;;;;;33.83;20.25;;;;;;;;;;6244084;28;20075;-80
2023/07/01 06:49:51;;;;;;;32.97;20.92;;;;;;;;;;6243706;28;20065;-81
2023/07/01 06:52:52;;;;;;;30.85;20.30;;;;;;;;;;6244100;28;20337;-81
2023/07/01 06:55:54;;;;;;;29.98;19.85;;;;;;;;;;6246004;28;20052;-80
2023/07/01 06:58:55;;;;;;;30.02;19.83;;;;;;;;;;6245837;28;20070;-80
2023/07/01 07:01:58;;;;;;;29.50;18.23;;;;;;;;;;6243785;28;20045;-81
2023/07/01 07:05:00;;;;;;;29.73;19.17;;;;;;;;;;6245173;28;20052;-80
2023/07/01 07:08:01;;;;;;;25.42;16.27;;;;;;;;;;6243353;28;20517;-80
2023/07/01 07:11:03;;;;;;;26.00;16.90;;;;;;;;;;6244396;28;20061;-82
2023/07/01 07:14:04;;;;;;;25.52;17.00;;;;;;;;;;6243219;28;20369;-80
2023/07/01 07:17:07;;;;;;;27.98;18.05;;;;;;;;;;6243055;28;20049;-80
2023/07/01 07:20:09;;;;;;;31.65;20.35;;;;;;;;;;6244702;28;20253;-80
2023/07/01 07:23:11;;;;;;;35.45;21.65;;;;;;;;;;6244340;28;20061;-81
2023/07/01 07:26:14;;;;;;;35.78;20.90;;;;;;;;;;6246287;28;20057;-81
2023/07/01 07:29:16;;;;;;;;;;;;;;;;;;6246789;28;20066;-81
2023/07/01 07:32:18;;;;;;;33.75;20.13;;;;;;;;;;6244635;28;19925;-79
2023/07/01 07:35:21;;;;;;;28.75;19.20;;;;;;;;;;6243051;28;20118;-82
2023/07/01 07:38:22;;;;;;;30.50;19.05;;;;;;;;;;6243261;28;20253;-82
2023/07/01 07:41:24;;;;;;;32.17;20.80;;;;;;;;;;6245806;28;20105;-80
2023/07/01 07:44:25;;;;;;;31.90;19.52;;;;;;;;;;6244525;28;20050;-81
2023/07/01 07:47:28;;;;;;;32.53;19.48;;;;;;;;;;6243634;28;20312;-78
2023/07/01 07:50:30;;;;;;;29.23;18.92;;;;;;;;;;6245060;28;20049;-80
2023/07/01 07:53:31;;;;;;;30.30;19.95;;;;;;;;;;6245443;28;20107;-79
2023/07/01 07:56:32;;;;;;;27.73;17.60;;;;;;;;;;6243030;28;20053;-78
2023/07/01 07:59:34;;;;;;;27.58;16.80;;;;;;;;;;6248817;28;20041;-79
2023/07/01 08:02:38;;;;;;;26.63;16.98;;;;;;;;;;6244844;28;20061;-79
2023/07/01 08:05:39;;;;;;;27.48;18.10;;;;;;;;;;6243768;28;20109;-80
2023/07/01 08:08:41;;;;;;;28.77;18.92;;;;;;;;;;6242110;28;20112;-78
2023/07/01 08:11:42;;;;;;;28.75;18.25;;;;;;;;;;6240444;28;20058;-83
2023/07/01 08:14:44;;;;;;;26.67;17.80;;;;;;;;;;6242775;28;20065;-82
2023/07/01 08:17:46;;;;;;;29.65;17.55;;;;;;;;;;6242922;28;20393;-89
2023/07/01 08:20:50;;;;;;;27.52;18.30;;;;;;;;;;6243377;28;20046;-87
2023/07/01 08:23:52;;;;;;;26.40;17.23;;;;;;;;;;6246777;28;20258;-85
2023/07/01 08:26:53;;;;;;;26.92;18.45;;;;;;;;;;6243665;28;20053;-83
2023/07/01 08:29:55;;;;;;;25.63;17.65;;;;;;;;;;6245850;28;20071;-91
2023/07/01 08:32:58;;;;;;;29.23;17.70;;;;;;;;;;6242220;28;20053;-86
2023/07/01 08:35:59;;;;;;;25.88;16.90;;;;;;;;;;6242052;28;20338;-85
2023/07/01 08:39:01;;;;;;;22.27;15.23;;;;;;;;;;6240635;28;20064;-87
2023/07/01 08:42:04;;;;;;;23.13;14.30;;;;;;;;;;6242181;28;20104;-87
2023/07/01 08:45:06;;;;;;;19.27;13.52;;;;;;;;;;6242228;28;20342;-85
2023/07/01 08:48:09;;;;;;;15.20;11.38;;;;;;;;;;6242809;28;20056;-86
2023/07/01 08:51:12;;;;;;;16.20;11.88;;;;;;;;;;6245216;28;20329;-84
2023/07/01 08:54:14;;;;;;;;;;;;;;;;;;6244825;28;20060;-89
2023/07/01 08:57:15;;;;;;;18.52;13.23;;;;;;;;;;6243018;28;19925;-89
2023/07/01 09:00:17;;;;;;;18.10;13.55;;;;;;;;;;6241662;28;20239;-87
2023/07/01 09:03:20;;;;;;;18.23;13.68;;;;;;;;;;6246677;28;20221;-86
2023/07/01 09:06:22;;;;;;;;;;;;;;;;;;6242941;28;20076;-83
2023/07/01 09:09:23;;;;;;;19.63;13.98;;;;;;;;;;6246042;28;19917;-83
2023/07/01 09:12:26;;;;;;;17.65;13.25;;;;;;;;;;6243899;28;20051;-85
2023/07/01 09:15:40;;;;;;;17.48;12.18;;;;;;;;;;6239680;28;20068;-85
2023/07/01 09:18:44;;;;;;;15.43;12.70;;;;;;;;;;6242390;28;20103;-86
2023/07/01 09:21:46;;;;;;;16.02;12.52;;;;;;;;;;6246661;28;20053;-86
2023/07/01 09:24:48;;;;;;;14.75;11.98;;;;;;;;;;6241144;28;20242;-90
2023/07/01 09:27:49;;;;;;;11.93;9.98;;;;;;;;;;6242568;28;20309;-82
2023/07/01 09:30:51;;;;;;;13.98;11.50;;;;;;;;;;6242401;28;20053;-90
2023/07/01 09:34:01;;;;;;;14.70;11.73;;;;;;;;;;6242548;28;20092;-86
2023/07/01 09:37:15;;;;;;;12.15;10.20;;;;;;;;;;6242067;28;20076;-90
2023/07/01 09:40:19;;;;;;;10.68;9.13;;;;;;;;;;6242586;28;20064;-90
2023/07/01 09:43:20;;;;;;;9.68;8.57;;;;;;;;;;6242464;28;20057;-83
2023/07/01 09:46:22;;;;;;;10.25;7.07;;;;;;;;;;6245240;28;20057;-87
2023/07/01 09:49:35;;;;;;;7.93;6.63;;;;;;;;;;6241992;28;21402;-91
2023/07/01 09:52:37;;;;;;;7.22;6.05;;;;;;;;;;6242212;28;20065;-91
2023/07/01 09:55:38;;;;;;;7.43;6.40;;;;;;;;;;6241114;28;20057;-93
2023/07/01 09:58:40;;;;;;;7.70;6.90;;;;;;;;;;6243254;28;20065;-86
2023/07/01 10:01:41;;;;;;;8.02;6.00;;;;;;;;;;6240137;28;20045;-80
2023/07/01 10:04:45;;;;;;;13.63;11.10;;;;;;;;;;6244457;28;20064;-80
2023/07/01 10:07:46;;;;;;;10.45;9.00;;;;;;;;;;6249191;28;20125;-80
2023/07/01 10:10:55;;;;;;;11.40;10.05;;;;;;;;;;6244259;28;20050;-79
2023/07/01 10:13:57;;;;;;;12.15;9.15;;;;;;;;;;6245898;28;20048;-80
2023/07/01 10:16:59;;;;;;;9.38;7.70;;;;;;;;;;6246339;28;20050;-81
2023/07/01 10:20:22;;;;;;;10.85;8.43;;;;;;;;;;6250855;28;20080;-80
2023/07/01 10:23:43;;;;;;;9.25;8.05;;;;;;;;;;6245974;28;20061;-85
2023/07/01 10:26:46;;;;;;;12.68;8.43;;;;;;;;;;6255507;28;20133;-83
2023/07/01 10:29:57;;;;;;;13.93;9.35;;;;;;;;;;6248623;28;20100;-82
2023/07/01 10:32:59;;;;;;;14.32;10.95;;;;;;;;;;6249155;28;20061;-83
2023/07/01 10:36:05;;;;;;;11.40;9.27;;;;;;;;;;6249144;28;20057;-81
2023/07/01 10:39:25;;;;;;;15.50;10.10;;;;;;;;;;6247822;28;20122;-83
2023/07/01 10:42:31;;;;;;;13.55;9.63;;;;;;;;;;6248503;28;20052;-82
2023/07/01 10:45:39;;;;;;;13.45;9.52;;;;;;;;;;6248156;28;20053;-84
2023/07/01 10:48:41;;;;;;;11.23;8.48;;;;;;;;;;6246639;28;20296;-81
2023/07/01 10:52:01;;;;;;;13.52;10.85;;;;;;;;;;6247772;28;20050;-81
2023/07/01 10:55:24;;;;;;;14.65;11.57;;;;;;;;;;6247361;28;20658;-80
2023/07/01 10:58:27;;;;;;;14.55;10.70;;;;;;;;;;6244815;28;20068;-81
2023/07/01 11:01:43;;;;;;;12.55;10.48;;;;;;;;;;6244097;28;20246;-83
2023/07/01 11:05:05;;;;;;;15.30;9.75;;;;;;;;;;6244343;28;20046;-82
2023/07/01 11:08:07;;;;;;;16.40;12.60;;;;;;;;;;6242862;28;20116;-83
2023/07/01 11:11:10;;;;;;;14.40;11.07;;;;;;;;;;6244156;28;20061;-82
2023/07/01 11:14:12;;;;;;;12.05;9.50;;;;;;;;;;6245051;28;20246;-82
2023/07/01 11:17:15;;;;;;;13.48;10.13;;;;;;;;;;6246440;28;20072;-83
2023/07/01 11:20:16;;;;;;;15.00;11.68;;;;;;;;;;6250642;28;20061;-82
2023/07/01 11:23:18;;;;;;;13.18;10.73;;;;;;;;;;6246243;28;20048;-83
2023/07/01 11:26:21;;;;;;;11.57;10.07;;;;;;;;;;6246843;28;20246;-81
2023/07/01 11:29:22;;;;;;;11.80;9.63;;;;;;;;;;6251529;28;20063;-79
2023/07/01 11:32:24;;;;;;;12.05;10.23;;;;;;;;;;6249375;28;20058;-80
2023/07/01 11:35:25;;;;;;;10.85;9.75;;;;;;;;;;6242462;28;20341;-81
2023/07/01 11:38:27;;;;;;;12.00;9.57;;;;;;;;;;6248003;28;20392;-80
2023/07/01 11:41:30;;;;;;;14.70;12.90;;;;;;;;;;6244477;28;20234;-84
2023/07/01 11:44:33;;;;;;;14.65;12.63;;;;;;;;;;6246791;28;20057;-82
2023/07/01 11:47:35;;;;;;;13.45;11.15;;;;;;;;;;6249715;28;20046;-83
2023/07/01 11:50:50;;;;;;;14.20;12.60;;;;;;;;;;6249028;28;20065;-83
2023/07/01 11:53:55;;;;;;;12.88;11.50;;;;;;;;;;6246309;28;20061;-86
2023/07/01 11:57:09;;;;;;;14.02;11.98;;;;;;;;;;6247885;28;20058;-82
2023/07/01 12:00:27;;;;;;;13.68;11.02;;;;;;;;;;6244600;28;20054;-87
2023/07/01 12:03:32;;;;;;;12.00;10.60;;;;;;;;;;6244285;28;20211;-83
2023/07/01 12:06:34;;;;;;;11.25;10.05;;;;;;;;;;6243195;28;20395;-86
2023/07/01 12:09:35;;;;;;;10.73;9.63;;;;;;;;;;6246093;28;20045;-80
2023/07/01 12:12:38;;;;;;;10.20;9.20;;;;;;;;;;6246523;28;20102;-80
2023/07/01 12:15:51;;;;;;;11.00;9.90;;;;;;;;;;6247472;28;20050;-80
2023/07/01 12:19:01;;;;;;;13.25;10.80;;;;;;;;;;6247201;28;20233;-80
2023/07/01 12:22:03;;;;;;;11.55;9.93;;;;;;;;;;6245419;28;20056;-79
2023/07/01 12:25:04;;;;;;;10.57;8.80;;;;;;;;;;6247509;28;20056;-78
2023/07/01 12:28:07;;;;;;;11.33;10.13;;;;;;;;;;6247257;28;20061;-79
2023/07/01 12:31:09;;;;;;;10.30;9.30;;;;;;;;;;6246295;28;20049;-78
2023/07/01 12:34:10;;;;;;;10.83;8.93;;;;;;;;;;6245591;28;20053;-79
2023/07/01 12:37:11;;;;;;;9.67;8.50;;;;;;;;;;6243496;28;20063;-79
2023/07/01 12:40:13;;;;;;;9.33;8.37;;;;;;;;;;6244476;28;20057;-78
2023/07/01 12:43:16;;;;;;;9.65;8.73;;;;;;;;;;6246707;28;20061;-79
2023/07/01 12:46:17;;;;;;;9.32;8.40;;;;;;;;;;6246453;28;20053;-79
2023/07/01 12:49:19;;;;;;;9.13;8.23;;;;;;;;;;6242049;28;20049;-79
2023/07/01 12:52:21;;;;;;;7.68;6.85;;;;;;;;;;6247191;28;20472;-79
2023/07/01 12:55:22;;;;;;;8.48;7.60;;;;;;;;;;6243512;28;20045;-79
2023/07/01 12:58:25;;;;;;;7.65;6.85;;;;;;;;;;6242765;28;20052;-79
2023/07/01 13:01:27;;;;;;;7.25;6.55;;;;;;;;;;6242998;28;20059;-79
2023/07/01 13:04:29;;;;;;;7.50;6.70;;;;;;;;;;6243289;28;20057;-78
2023/07/01 13:07:31;;;;;;;6.80;6.10;;;;;;;;;;6242827;28;20057;-78
2023/07/01 13:10:32;;;;;;;7.88;6.90;;;;;;;;;;6247293;28;20049;-78
2023/07/01 13:13:36;;;;;;;8.10;7.25;;;;;;;;;;6244079;28;20076;-78
2023/07/01 13:16:38;;;;;;;8.00;7.20;;;;;;;;;;6244783;28;20081;-78
2023/07/01 13:19:39;;;;;;;8.88;6.53;;;;;;;;;;6246119;28;20071;-78
2023/07/01 13:22:41;;;;;;;9.57;6.80;;;;;;;;;;6246177;28;20050;-75
2023/07/01 13:25:42;;;;;;;7.30;6.28;;;;;;;;;;6245582;28;20107;-78
2023/07/01 13:28:45;;;;;;;7.63;6.80;;;;;;;;;;6244382;28;20253;-78
2023/07/01 13:31:47;;;;;;;6.97;6.25;;;;;;;;;;6246422;28;20329;-78
2023/07/01 13:34:49;;;;;;;;;;;;;;;;;;6241408;28;20054;-77
2023/07/01 13:37:50;;;;;;;6.82;6.10;;;;;;;;;;6241345;28;19923;-78
2023/07/01 13:40:52;;;;;;;7.68;6.18;;;;;;;;;;6246907;28;20064;-77
2023/07/01 13:43:59;;;;;;;8.23;6.27;;;;;;;;;;6247959;28;20060;-77
2023/07/01 13:47:01;;;;;;;6.30;5.57;;;;;;;;;;6242181;28;20467;-77
2023/07/01 13:50:03;;;;;;;6.33;5.70;;;;;;;;;;6246850;28;20349;-77
2023/07/01 13:53:07;;;;;;;6.28;5.47;;;;;;;;;;6246456;28;20237;-77
2023/07/01 13:56:08;;;;;;;7.18;6.47;;;;;;;;;;6244692;28;20061;-77
2023/07/01 13:59:14;;;;;;;7.67;5.80;;;;;;;;;;6244464;28;20045;-78
2023/07/01 14:02:16;;;;;;;6.25;4.82;;;;;;;;;;6247429;28;20091;-79
2023/07/01 14:05:22;;;;;;;5.97;5.35;;;;;;;;;;6239287;28;20061;-77
2023/07/01 14:08:26;;;;;;;5.85;5.25;;;;;;;;;;6246971;28;20065;-78
2023/07/01 14:11:28;;;;;;;6.32;5.72;;;;;;;;;;6230721;28;20068;-79
2023/07/01 14:14:32;;;;;;;10.33;8.70;;;;;;;;;;6244706;28;20284;-78
2023/07/01 14:17:33;;;;;;;9.82;6.50;;;;;;;;;;6248695;28;20571;-78
2023/07/01 14:20:35;;;;;;;6.00;5.07;;;;;;;;;;6249161;28;20336;-79
2023/07/01 14:23:38;;;;;;;7.13;5.35;;;;;;;;;;6248640;28;20819;-78
2023/07/01 14:26:42;;;;;;;5.68;4.88;;;;;;;;;;6247865;28;20052;-81
2023/07/01 14:29:44;;;;;;;6.43;5.57;;;;;;;;;;6248479;28;20072;-79
2023/07/01 14:32:52;;;;;;;6.85;5.70;;;;;;;;;;6252675;28;20337;-79
2023/07/01 14:35:53;;;;;;;5.85;5.25;;;;;;;;;;6250423;28;20080;-80
2023/07/01 14:38:55;;;;;;;5.68;5.00;;;;;;;;;;6249423;28;20469;-77
2023/07/01 14:41:56;;;;;;;8.07;5.32;;;;;;;;;;6245708;28;20063;-79
2023/07/01 14:44:59;;;;;;;5.72;4.80;;;;;;;;;;6247569;28;20372;-78
2023/07/01 14:48:01;;;;;;;5.30;4.60;;;;;;;;;;6246400;28;20061;-79
2023/07/01 14:51:02;;;;;;;6.75;5.03;;;;;;;;;;6249077;28;20338;-80
2023/07/01 14:54:04;;;;;;;7.32;4.60;;;;;;;;;;6247941;28;20349;-83
2023/07/01 14:57:06;;;;;;;7.22;4.72;;;;;;;;;;6244922;28;20359;-82
2023/07/01 15:00:09;;;;;;;6.95;5.57;;;;;;;;;;6245087;28;20273;-81
2023/07/01 15:03:11;;;;;;;7.65;4.57;;;;;;;;;;6243561;28;20111;-81
2023/07/01 15:06:12;;;;;;;6.10;4.80;;;;;;;;;;6245783;28;20045;-81
2023/07/01 15:09:14;;;;;;;6.00;4.30;;;;;;;;;;6246176;28;20045;-80
2023/07/01 15:12:15;;;;;;;5.82;4.95;;;;;;;;;;6244026;28;20054;-80
2023/07/01 15:15:18;;;;;;;6.05;5.03;;;;;;;;;;6242928;28;20064;-80
2023/07/01 15:18:19;;;;;;;7.10;4.65;;;;;;;;;;6245119;28;20045;-81
2023/07/01 15:21:21;;;;;;;6.47;5.60;;;;;;;;;;6244632;28;20045;-80
2023/07/01 15:24:22;;;;;;;6.15;4.30;;;;;;;;;;6246384;28;20345;-80
2023/07/01 15:27:24;;;;;;;7.22;4.38;;;;;;;;;;6245282;28;20083;-81
2023/07/01 15:30:27;;;;;;;9.20;4.80;;;;;;;;;;6245642;28;20068;-80
2023/07/01 15:33:28;;;;;;;;;;;;;;;;;;6245270;28;20293;-79
2023/07/01 15:36:29;;;;;;;6.30;4.57;;;;;;;;;;6243529;28;19917;-80
2023/07/01 15:39:31;;;;;;;6.15;4.40;;;;;;;;;;6243895;28;20058;-80
2023/07/01 15:42:33;;;;;;;6.13;4.68;;;;;;;;;;6244232;28;20049;-77
2023/07/01 15:45:36;;;;;;;6.05;4.65;;;;;;;;;;6243761;28;20112;-78
2023/07/01 15:48:37;;;;;;;;;;;;;;;;;;6243833;28;20045;-78
2023/07/01 15:51:46;;;;;;;5.45;4.45;;;;;;;;;;6244312;28;19925;-78
2023/07/01 15:54:50;;;;;;;7.57;4.63;;;;;;;;;;6250238;28;20041;-78
2023/07/01 16:01:14;;;;;;;6.53;5.00;;;;;;;;;;6248556;28;20045;-79
2023/07/01 16:04:15;;;;;;;6.30;4.75;;;;;;;;;;6246969;28;20053;-78
2023/07/01 16:07:41;;;;;;;6.40;5.10;;;;;;;;;;6242563;28;20045;-79
2023/07/01 16:10:43;;;;;;;5.28;4.25;;;;;;;;;;6234349;28;20072;-78
2023/07/01 16:13:44;;;;;;;5.20;4.13;;;;;;;;;;6243497;28;20092;-78
2023/07/01 16:16:48;;;;;;;5.97;4.30;;;;;;;;;;6244304;28;20487;-78
2023/07/01 16:19:49;;;;;;;5.30;4.80;;;;;;;;;;6244692;28;20852;-79
2023/07/01 16:22:51;;;;;;;6.55;4.38;;;;;;;;;;6244837;28;20330;-77
2023/07/01 16:25:54;;;;;;;6.65;4.75;;;;;;;;;;6245287;28;20397;-78
2023/07/01 16:28:55;;;;;;;8.20;4.72;;;;;;;;;;6240986;28;20064;-71
2023/07/01 16:31:58;;;;;;;5.95;4.50;;;;;;;;;;6242730;28;20150;-73
2023/07/01 16:35:01;;;;;;;5.53;4.57;;;;;;;;;;6242962;28;20346;-79
2023/07/01 16:38:04;;;;;;;5.47;4.32;;;;;;;;;;6241916;28;20117;-77
2023/07/01 16:41:06;;;;;;;6.18;4.80;;;;;;;;;;6241060;28;20237;-78
2023/07/01 16:44:07;;;;;;;4.93;4.25;;;;;;;;;;6244229;28;20055;-78
2023/07/01 16:47:11;;;;;;;5.60;4.28;;;;;;;;;;6241711;28;20254;-79
2023/07/01 16:50:16;;;;;;;6.53;4.78;;;;;;;;;;6241930;28;20054;-78
2023/07/01 16:53:17;;;;;;;6.05;4.90;;;;;;;;;;6243174;28;20147;-82
2023/07/01 16:56:37;;;;;;;5.43;4.22;;;;;;;;;;6240925;28;20160;-78
2023/07/01 16:59:41;;;;;;;30.35;11.88;;;;;;;;;;6241397;28;20092;-78
2023/07/01 17:03:08;;;;;;;5.00;4.43;;;;;;;;;;6240918;28;20072;-78
2023/07/01 17:06:30;;;;;;;4.97;4.43;;;;;;;;;;6240744;28;20057;-76
2023/07/01 17:09:41;;;;;;;5.82;4.32;;;;;;;;;;6240839;28;20057;-79
2023/07/01 17:12:42;;;;;;;5.65;4.82;;;;;;;;;;6240434;28;20053;-74
2023/07/01 17:15:44;;;;;;;6.20;4.47;;;;;;;;;;6242895;28;20064;-74
2023/07/01 17:18:46;;;;;;;5.63;4.95;;;;;;;;;;6240875;28;20084;-81
2023/07/01 17:21:48;;;;;;;5.20;4.63;;;;;;;;;;6245547;28;20237;-87
2023/07/01 17:24:50;;;;;;;5.55;4.88;;;;;;;;;;6243013;28;20046;-80
2023/07/01 17:27:51;;;;;;;7.15;4.28;;;;;;;;;;6241894;28;20053;-81
2023/07/01 17:30:53;;;;;;;6.28;4.60;;;;;;;;;;6241213;28;20341;-80
2023/07/01 17:33:55;;;;;;;5.72;4.53;;;;;;;;;;6241367;28;20056;-81
2023/07/01 17:36:57;;;;;;;5.63;4.75;;;;;;;;;;6239059;28;20058;-82
2023/07/01 17:39:58;;;;;;;5.22;4.35;;;;;;;;;;6241941;28;20053;-83
2023/07/01 17:43:00;;;;;;;5.70;4.88;;;;;;;;;;6245518;28;20054;-84
2023/07/01 17:46:02;;;;;;;5.13;4.38;;;;;;;;;;6240874;28;20061;-82
2023/07/01 17:49:05;;;;;;;5.90;4.50;;;;;;;;;;6241343;28;20045;-82
2023/07/01 17:52:07;;;;;;;5.40;4.75;;;;;;;;;;6243794;28;20042;-81
2023/07/01 17:55:08;;;;;;;5.25;4.47;;;;;;;;;;6240264;28;20057;-81
2023/07/01 17:58:10;;;;;;;6.72;4.88;;;;;;;;;;6242655;28;20061;-82
2023/07/01 18:01:15;;;;;;;5.70;4.55;;;;;;;;;;6239931;28;20105;-82
2023/07/01 18:04:18;;;;;;;6.50;5.03;;;;;;;;;;6239504;28;20050;-83